UUDD/DME METAR and TAF weather

Enter ICAO airport designator
Station Type Date Time Source
UUDD METAR 2022/11/30 16:00 UTC NOAA

UUDD 301600Z 15003MPS 4800 BR NSC M13/M15 Q1041 R14R/190050 R14C/520242 NOSIG


Station Type Date Time Source
UUDD Decoded METAR 2022/11/30 16:00 UTC NOAA

Moscow / Domodedovo, Russia (UUDD) 55-24N 037-54E
Nov 30, 2022 - 11:00 AM EST / 2022.11.30 1600 UTC
Wind: from the SSE (150 degrees) at 7 MPH (6 KT):0
Visibility: 2 mile(s):0
Weather: mist
Temperature: 8 F (-13 C)
Windchill: -4 F (-20 C):1
Dew Point: 5 F (-15 C)
Relative Humidity: 84%
Pressure (altimeter): 30.74 in. Hg (1041 hPa)
ob: UUDD 301600Z 15003MPS 4800 BR NSC M13/M15 Q1041 R14R/190050 R14C/520242 NOSIG
cycle: 16

Station Type Date Time Source
UUDD TAF 2022/11/30 15:22 UTC NOAA

TAF UUDD 301355Z 3015/0121 10003MPS 3000 BR FEW004 TXM09/0112Z TNM14/0106Z
TEMPO 3015/0107 0300 FZFG BKN002
BECMG 0107/0109 6000 NSW
TEMPO 0109/0118 BKN004

Example: see airport list